createdAt,value
2022-11-22T01:01:43.143Z,98468.72
2022-11-22T01:06:46.876Z,98463.28
2022-11-22T01:11:50.156Z,98466.16
2022-11-22T01:16:54.382Z,98466.66
2022-11-22T01:21:58.047Z,98464.19
2022-11-22T01:27:01.074Z,98462.91
2022-11-22T01:32:06.613Z,98460.97
2022-11-22T01:37:09.658Z,98468.22
2022-11-22T01:42:13.746Z,98465.28
2022-11-22T01:47:22.022Z,98463.19
2022-11-22T01:52:29.728Z,98458.09
2022-11-22T01:57:35.977Z,98459.38
2022-11-22T02:02:40.272Z,98436.47
2022-11-22T02:07:51.770Z,98420.09
2022-11-22T02:12:56.785Z,98424.91
2022-11-22T02:18:00.908Z,98417.44
2022-11-22T02:23:12.736Z,98405.97
2022-11-22T02:28:16.957Z,98396.63
2022-11-22T02:33:20.613Z,98387.47
2022-11-22T02:38:25.948Z,98372.63
2022-11-22T02:43:35.555Z,98368.66
2022-11-22T02:48:42.615Z,98368.28
2022-11-22T02:53:45.823Z,98373.09
2022-11-22T02:58:50.056Z,98384.09
2022-11-22T03:03:53.333Z,98383.00
2022-11-22T03:08:56.893Z,98370.00
2022-11-22T03:14:01.139Z,98382.72
2022-11-22T03:19:04.264Z,98379.34
2022-11-22T03:24:08.619Z,98367.19
2022-11-22T03:29:12.767Z,98366.47
2022-11-22T03:34:16.045Z,98363.25
2022-11-22T03:39:18.814Z,98365.94
2022-11-22T03:44:23.007Z,98362.41
2022-11-22T03:49:25.794Z,98365.22
2022-11-22T03:54:28.617Z,98369.88
2022-11-22T03:59:32.820Z,98361.25
2022-11-22T04:04:35.653Z,98351.53
2022-11-22T04:09:38.368Z,98342.94
2022-11-22T04:15:00.086Z,98342.19
2022-11-22T04:20:16.744Z,98353.09
2022-11-22T04:25:19.538Z,98347.88
2022-11-22T04:30:45.454Z,98341.78
2022-11-22T04:35:48.643Z,98338.69
2022-11-22T04:40:51.555Z,98346.88
2022-11-22T04:45:55.690Z,98336.16
2022-11-22T04:51:16.052Z,98330.09
2022-11-22T04:56:19.212Z,98319.78
2022-11-22T05:01:23.477Z,98327.81
2022-11-22T05:06:26.378Z,98341.50
2022-11-22T05:11:29.456Z,98329.94
2022-11-22T05:16:33.558Z,98351.56
2022-11-22T05:21:37.375Z,98356.91
2022-11-22T05:26:40.255Z,98362.44
2022-11-22T05:31:49.857Z,98381.22
2022-11-22T05:36:54.237Z,98371.47
2022-11-22T05:41:57.061Z,98388.53
2022-11-22T05:47:01.358Z,98380.66
2022-11-22T05:52:04.726Z,98391.38
2022-11-22T05:57:07.550Z,98388.00
2022-11-22T06:02:11.747Z,98394.22
2022-11-22T06:07:14.610Z,98394.34
2022-11-22T06:12:17.398Z,98407.78
2022-11-22T06:17:22.119Z,98401.41
2022-11-22T06:22:25.035Z,98398.72
2022-11-22T06:27:28.113Z,98401.56
2022-11-22T06:32:35.198Z,98401.66
2022-11-22T06:37:37.936Z,98406.31
2022-11-22T06:42:40.707Z,98421.56
2022-11-22T06:47:44.784Z,98413.66
2022-11-22T06:52:51.941Z,98419.16
2022-11-22T06:57:54.748Z,98421.84
2022-11-22T07:02:58.861Z,98420.16
2022-11-22T07:08:07.840Z,98416.47
2022-11-22T07:13:13.328Z,98405.03
2022-11-22T07:18:17.462Z,98411.25
2022-11-22T07:23:20.792Z,98423.81
2022-11-22T07:28:23.564Z,98418.47
2022-11-22T07:33:27.987Z,98426.34
2022-11-22T07:38:30.765Z,98430.19
2022-11-22T07:43:34.141Z,98431.16
2022-11-22T07:48:38.318Z,98436.38
2022-11-22T07:53:41.089Z,98451.66
2022-11-22T07:58:44.120Z,98451.66
2022-11-22T08:03:48.533Z,98455.16
2022-11-22T08:08:51.737Z,98452.47
2022-11-22T08:13:56.405Z,98457.72
2022-11-22T08:19:00.559Z,98460.25
2022-11-22T08:24:03.384Z,98459.41
2022-11-22T08:29:11.106Z,98451.34
2022-11-22T08:34:17.938Z,98467.44
2022-11-22T08:39:22.024Z,98461.09
2022-11-22T08:44:24.859Z,98468.28
2022-11-22T08:49:29.293Z,98473.53
2022-11-22T08:54:36.316Z,98476.34
2022-11-22T08:59:40.676Z,98484.97
2022-11-22T09:04:44.969Z,98503.91
2022-11-22T09:09:47.907Z,98520.00
2022-11-22T09:14:51.392Z,98520.13
2022-11-22T09:19:55.530Z,98525.47
2022-11-22T09:24:58.663Z,98520.25
2022-11-22T09:30:01.528Z,98521.00
2022-11-22T09:35:06.307Z,98531.72
2022-11-22T09:40:10.694Z,98527.69
2022-11-22T09:45:39.399Z,98541.47
2022-11-22T09:50:54.368Z,98541.63
2022-11-22T09:56:00.509Z,98530.16
2022-11-22T10:01:10.030Z,98532.94
2022-11-22T10:06:20.575Z,98534.72
2022-11-22T10:11:36.585Z,98532.06
2022-11-22T10:16:49.100Z,98532.50
2022-11-22T10:21:53.529Z,98520.84
2022-11-22T10:27:00.818Z,98530.94
2022-11-22T10:32:12.363Z,98538.09
2022-11-22T10:37:26.172Z,98543.91
2022-11-22T10:43:05.631Z,98546.16
2022-11-22T10:48:21.199Z,98552.81
2022-11-22T10:53:36.122Z,98538.06
2022-11-22T10:58:54.778Z,98523.41
2022-11-22T11:04:01.034Z,98535.56
2022-11-22T11:14:41.590Z,98539.41
2022-11-22T11:19:48.132Z,98541.69
2022-11-22T11:24:52.580Z,98531.69
2022-11-22T11:30:01.901Z,98529.72
2022-11-22T11:35:08.053Z,98516.19
2022-11-22T11:40:28.357Z,98517.72
2022-11-22T11:45:32.985Z,98510.56
2022-11-22T11:50:35.797Z,98507.75
2022-11-22T11:55:39.969Z,98513.81
2022-11-22T12:00:43.590Z,98519.03
2022-11-22T12:05:46.836Z,98513.56
2022-11-22T12:11:00.781Z,98509.03
2022-11-22T12:16:14.809Z,98513.25
2022-11-22T12:21:24.849Z,98514.94
2022-11-22T12:26:30.115Z,98512.88
2022-11-22T12:31:38.344Z,98514.56
2022-11-22T12:36:46.320Z,98512.72
2022-11-22T12:41:56.627Z,98522.50
2022-11-22T12:47:07.163Z,98531.38
2022-11-22T12:52:19.317Z,98521.50
2022-11-22T12:57:29.535Z,98519.50
2022-11-22T13:02:35.937Z,98522.91
2022-11-22T13:07:51.810Z,98519.25
2022-11-22T13:12:58.414Z,98520.94
2022-11-22T13:18:01.903Z,98530.69
2022-11-22T13:23:22.671Z,98532.69
2022-11-22T13:28:33.710Z,98522.03
2022-11-22T13:33:38.366Z,98526.22
2022-11-22T13:38:44.637Z,98522.75
2022-11-22T13:43:56.441Z,98524.16
2022-11-22T13:49:15.342Z,98515.88
2022-11-22T13:54:52.697Z,98514.75
2022-11-22T14:00:46.825Z,98527.06
2022-11-22T14:05:52.742Z,98537.50
2022-11-22T14:11:11.961Z,98528.47
2022-11-22T14:16:35.983Z,98521.84
2022-11-22T14:21:58.828Z,98515.09
2022-11-22T14:27:17.513Z,98506.78
2022-11-22T14:32:22.668Z,98506.50
2022-11-22T14:37:46.513Z,98502.72
2022-11-22T14:42:53.628Z,98507.69
2022-11-22T14:48:06.683Z,98511.47
2022-11-22T14:53:22.724Z,98526.72
2022-11-22T14:58:29.406Z,98519.50
2022-11-22T15:09:12.138Z,98512.47
2022-11-22T15:09:52.870Z,98522.06
2022-11-22T15:59:11.635Z,98578.59
2022-11-22T16:04:24.141Z,98584.78
2022-11-22T16:09:32.003Z,98585.50
2022-11-22T16:14:47.056Z,98597.44
2022-11-22T16:19:49.845Z,98600.16
2022-11-22T16:24:52.759Z,98608.25
2022-11-22T16:29:57.257Z,98596.41
2022-11-22T16:35:27.575Z,98608.03
2022-11-22T16:40:22.859Z,98603.69
2022-11-22T16:45:27.018Z,98602.81
2022-11-22T16:50:29.829Z,98616.44
2022-11-22T16:55:32.663Z,98627.31
2022-11-22T17:00:37.902Z,98630.28
2022-11-22T17:05:40.939Z,98634.00
2022-11-22T17:10:48.752Z,98640.53
2022-11-22T17:15:53.911Z,98642.66
2022-11-22T17:20:56.780Z,98643.66
2022-11-22T17:25:59.633Z,98664.59
2022-11-22T17:31:06.812Z,98658.78
2022-11-22T17:36:20.643Z,98666.84
2022-11-22T17:41:23.534Z,98666.25
2022-11-22T17:46:29.420Z,98661.63
2022-11-22T17:51:32.802Z,98656.66
2022-11-22T17:56:36.241Z,98651.69
2022-11-22T18:01:40.405Z,98662.84
2022-11-22T18:06:43.212Z,98662.56
2022-11-22T18:11:45.971Z,98673.06
2022-11-22T18:16:50.309Z,98669.06
2022-11-22T18:21:53.150Z,98680.44
2022-11-22T18:26:55.933Z,98674.63
2022-11-22T18:32:00.646Z,98693.88
2022-11-22T18:37:04.569Z,98689.88
2022-11-22T18:42:09.272Z,98702.22
2022-11-22T18:47:13.473Z,98702.75
2022-11-22T18:52:18.003Z,98716.63
2022-11-22T18:57:20.955Z,98720.91
2022-11-22T19:02:26.155Z,98709.13
2022-11-22T19:07:29.287Z,98715.09
2022-11-22T19:12:32.356Z,98709.25
2022-11-22T19:17:38.778Z,98708.81
2022-11-22T19:22:41.553Z,98718.56
2022-11-22T19:27:44.449Z,98716.44
2022-11-22T19:32:48.558Z,98715.00
2022-11-22T19:37:52.270Z,98713.75
2022-11-22T19:42:55.064Z,98710.88
2022-11-22T19:47:59.357Z,98713.31
2022-11-22T19:53:02.109Z,98711.16
2022-11-22T19:58:05.950Z,98720.63
2022-11-22T20:03:13.563Z,98724.88
2022-11-22T20:08:16.360Z,98735.63
2022-11-22T20:13:19.126Z,98742.28
2022-11-22T20:18:23.398Z,98728.81
2022-11-22T20:23:26.149Z,98717.91
2022-11-22T20:28:29.086Z,98720.44
2022-11-22T20:33:34.235Z,98732.91
2022-11-22T20:38:38.833Z,98726.56
2022-11-22T20:43:42.133Z,98730.22
2022-11-22T20:48:48.059Z,98726.44
2022-11-22T20:53:51.644Z,98729.97
2022-11-22T20:58:54.652Z,98725.97
2022-11-22T21:03:58.925Z,98728.66
2022-11-22T21:09:01.730Z,98727.69
2022-11-22T21:14:04.618Z,98732.91
2022-11-22T21:19:08.848Z,98734.75
2022-11-22T21:24:13.734Z,98737.47
2022-11-22T21:29:17.032Z,98747.25
2022-11-22T21:34:21.199Z,98747.06
2022-11-22T21:39:24.085Z,98751.03
2022-11-22T21:44:26.828Z,98744.09
2022-11-22T21:49:30.993Z,98742.94
2022-11-22T21:54:34.191Z,98741.09
2022-11-22T21:59:37.028Z,98748.91
2022-11-22T22:04:41.149Z,98753.28
2022-11-22T22:09:43.905Z,98751.44
2022-11-22T22:14:46.710Z,98752.16
2022-11-22T22:19:52.318Z,98750.75
2022-11-22T22:24:55.181Z,98751.28
2022-11-22T22:29:57.912Z,98760.25
2022-11-22T22:35:02.271Z,98762.78
2022-11-22T22:40:05.648Z,98766.16
2022-11-22T22:45:09.039Z,98774.09
2022-11-22T22:50:13.150Z,98775.94
2022-11-22T22:55:16.134Z,98777.78
2022-11-22T23:00:20.336Z,98779.19
2022-11-22T23:05:24.646Z,98776.66
2022-11-22T23:10:27.800Z,98773.13
2022-11-22T23:15:51.077Z,98772.13
2022-11-22T23:20:59.262Z,98771.09
2022-11-22T23:26:03.807Z,98772.81
2022-11-22T23:31:07.947Z,98772.81
2022-11-22T23:36:13.790Z,98774.50
2022-11-22T23:41:19.625Z,98785.28
2022-11-22T23:46:24.790Z,98786.28
2022-11-22T23:51:31.978Z,98780.72
2022-11-22T23:56:36.313Z,98777.06
